sensor_id;sensor_type;location;lat;lon;timestamp;pressure;altitude;pressure_sealevel;temperature;humidity
32197;BME280;18697;42.770;23.400;2023-05-15T00:00:33;95647.16;;;11.31;100.00
32197;BME280;18697;42.770;23.400;2023-05-15T00:02:58;95643.91;;;11.33;100.00
32197;BME280;18697;42.770;23.400;2023-05-15T00:05:24;95642.34;;;11.32;100.00
32197;BME280;18697;42.770;23.400;2023-05-15T00:07:49;95635.84;;;11.35;100.00
32197;BME280;18697;42.770;23.400;2023-05-15T00:10:14;95632.94;;;11.29;100.00
32197;BME280;18697;42.770;23.400;2023-05-15T00:12:40;95637.44;;;11.27;100.00
32197;BME280;18697;42.770;23.400;2023-05-15T00:15:06;95636.34;;;11.24;100.00
32197;BME280;18697;42.770;23.400;2023-05-15T00:17:31;95650.41;;;11.30;100.00
32197;BME280;18697;42.770;23.400;2023-05-15T00:19:56;95662.88;;;11.34;100.00
32197;BME280;18697;42.770;23.400;2023-05-15T00:22:24;95688.19;;;11.45;100.00
32197;BME280;18697;42.770;23.400;2023-05-15T00:24:50;95681.41;;;11.46;100.00
32197;BME280;18697;42.770;23.400;2023-05-15T00:27:15;95673.03;;;11.56;100.00
32197;BME280;18697;42.770;23.400;2023-05-15T00:29:40;95671.47;;;11.55;100.00
32197;BME280;18697;42.770;23.400;2023-05-15T00:32:06;95664.03;;;11.61;100.00
32197;BME280;18697;42.770;23.400;2023-05-15T00:34:31;95669.91;;;11.63;100.00
32197;BME280;18697;42.770;23.400;2023-05-15T00:36:58;95664.97;;;11.58;100.00
32197;BME280;18697;42.770;23.400;2023-05-15T00:39:24;95653.84;;;11.58;100.00
32197;BME280;18697;42.770;23.400;2023-05-15T00:41:50;95658.16;;;11.59;100.00
32197;BME280;18697;42.770;23.400;2023-05-15T00:44:17;95656.00;;;11.63;100.00
32197;BME280;18697;42.770;23.400;2023-05-15T00:46:45;95639.94;;;11.58;100.00
32197;BME280;18697;42.770;23.400;2023-05-15T00:49:11;95637.16;;;11.58;100.00
32197;BME280;18697;42.770;23.400;2023-05-15T00:51:39;95641.78;;;11.61;100.00
32197;BME280;18697;42.770;23.400;2023-05-15T00:54:07;95638.53;;;11.62;100.00
32197;BME280;18697;42.770;23.400;2023-05-15T00:56:32;95650.88;;;11.70;100.00
32197;BME280;18697;42.770;23.400;2023-05-15T00:58:59;95637.75;;;11.62;100.00
32197;BME280;18697;42.770;23.400;2023-05-15T01:01:26;95629.88;;;11.60;100.00
32197;BME280;18697;42.770;23.400;2023-05-15T01:03:53;95630.34;;;11.59;100.00
32197;BME280;18697;42.770;23.400;2023-05-15T01:06:18;95636.88;;;11.56;100.00
32197;BME280;18697;42.770;23.400;2023-05-15T01:08:47;95665.75;;;11.58;100.00
32197;BME280;18697;42.770;23.400;2023-05-15T01:11:14;95664.03;;;11.61;100.00
32197;BME280;18697;42.770;23.400;2023-05-15T01:13:40;95639.00;;;11.61;100.00
32197;BME280;18697;42.770;23.400;2023-05-15T01:16:08;95648.59;;;11.60;100.00
32197;BME280;18697;42.770;23.400;2023-05-15T01:18:34;95654.78;;;11.55;100.00
32197;BME280;18697;42.770;23.400;2023-05-15T01:29:04;95651.38;;;11.60;100.00
32197;BME280;18697;42.770;23.400;2023-05-15T01:31:33;95638.69;;;11.59;100.00
32197;BME280;18697;42.770;23.400;2023-05-15T01:34:02;95618.75;;;11.60;100.00
32197;BME280;18697;42.770;23.400;2023-05-15T01:36:37;95593.78;;;11.51;100.00
32197;BME280;18697;42.770;23.400;2023-05-15T01:39:04;95605.19;;;11.53;100.00
32197;BME280;18697;42.770;23.400;2023-05-15T01:41:57;95607.81;;;11.57;100.00
32197;BME280;18697;42.770;23.400;2023-05-15T01:44:29;95587.75;;;11.52;100.00
32197;BME280;18697;42.770;23.400;2023-05-15T01:47:03;95591.59;;;11.55;100.00
32197;BME280;18697;42.770;23.400;2023-05-15T01:49:31;95601.34;;;11.50;100.00
32197;BME280;18697;42.770;23.400;2023-05-15T01:52:13;95593.59;;;11.55;100.00
32197;BME280;18697;42.770;23.400;2023-05-15T01:54:41;95593.94;;;11.47;100.00
32197;BME280;18697;42.770;23.400;2023-05-15T01:57:08;95583.50;;;11.33;100.00
32197;BME280;18697;42.770;23.400;2023-05-15T01:59:35;95588.19;;;11.18;100.00
32197;BME280;18697;42.770;23.400;2023-05-15T02:02:03;95596.75;;;11.38;100.00
32197;BME280;18697;42.770;23.400;2023-05-15T02:04:29;95587.66;;;11.38;100.00
32197;BME280;18697;42.770;23.400;2023-05-15T02:06:55;95605.22;;;11.44;100.00
32197;BME280;18697;42.770;23.400;2023-05-15T02:09:21;95604.81;;;11.36;100.00
32197;BME280;18697;42.770;23.400;2023-05-15T02:11:48;95616.06;;;11.42;100.00
32197;BME280;18697;42.770;23.400;2023-05-15T02:14:15;95622.69;;;11.44;100.00
32197;BME280;18697;42.770;23.400;2023-05-15T02:16:41;95615.25;;;11.50;100.00
32197;BME280;18697;42.770;23.400;2023-05-15T02:19:07;95615.25;;;11.50;100.00
32197;BME280;18697;42.770;23.400;2023-05-15T02:21:33;95591.75;;;11.51;100.00
32197;BME280;18697;42.770;23.400;2023-05-15T02:23:59;95583.72;;;11.53;100.00
32197;BME280;18697;42.770;23.400;2023-05-15T02:28:53;95598.44;;;11.45;100.00
32197;BME280;18697;42.770;23.400;2023-05-15T02:31:30;95607.41;;;11.40;100.00
32197;BME280;18697;42.770;23.400;2023-05-15T02:34:05;95594.00;;;11.29;100.00
32197;BME280;18697;42.770;23.400;2023-05-15T02:36:36;95589.53;;;11.32;100.00
32197;BME280;18697;42.770;23.400;2023-05-15T02:39:02;95577.13;;;11.42;100.00
32197;BME280;18697;42.770;23.400;2023-05-15T02:41:30;95568.31;;;11.43;100.00
32197;BME280;18697;42.770;23.400;2023-05-15T02:43:56;95570.50;;;11.39;100.00
32197;BME280;18697;42.770;23.400;2023-05-15T02:46:24;95560.13;;;11.40;100.00
32197;BME280;18697;42.770;23.400;2023-05-15T02:48:51;95589.03;;;11.42;100.00
32197;BME280;18697;42.770;23.400;2023-05-15T02:51:17;95598.13;;;11.43;100.00
32197;BME280;18697;42.770;23.400;2023-05-15T02:53:43;95603.66;;;11.52;100.00
32197;BME280;18697;42.770;23.400;2023-05-15T02:56:08;95592.19;;;11.59;100.00
32197;BME280;18697;42.770;23.400;2023-05-15T02:58:34;95587.38;;;11.60;100.00
32197;BME280;18697;42.770;23.400;2023-05-15T03:01:00;95591.00;;;11.51;100.00
32197;BME280;18697;42.770;23.400;2023-05-15T03:03:25;95583.25;;;11.55;100.00
32197;BME280;18697;42.770;23.400;2023-05-15T03:05:50;95589.56;;;11.56;100.00
32197;BME280;18697;42.770;23.400;2023-05-15T03:08:16;95591.72;;;11.61;100.00
32197;BME280;18697;42.770;23.400;2023-05-15T03:10:42;95595.91;;;11.56;100.00
32197;BME280;18697;42.770;23.400;2023-05-15T03:13:07;95584.47;;;11.54;100.00
32197;BME280;18697;42.770;23.400;2023-05-15T03:15:32;95590.16;;;11.60;100.00
32197;BME280;18697;42.770;23.400;2023-05-15T03:17:58;95592.81;;;11.54;100.00
32197;BME280;18697;42.770;23.400;2023-05-15T03:20:23;95600.53;;;11.59;100.00
32197;BME280;18697;42.770;23.400;2023-05-15T03:22:49;95604.72;;;11.55;100.00
32197;BME280;18697;42.770;23.400;2023-05-15T03:25:14;95600.44;;;11.44;100.00
32197;BME280;18697;42.770;23.400;2023-05-15T03:27:39;95590.22;;;11.50;100.00
32197;BME280;18697;42.770;23.400;2023-05-15T03:30:05;95579.38;;;11.52;100.00
32197;BME280;18697;42.770;23.400;2023-05-15T03:32:31;95594.06;;;11.53;100.00
32197;BME280;18697;42.770;23.400;2023-05-15T03:34:56;95591.13;;;11.57;100.00
32197;BME280;18697;42.770;23.400;2023-05-15T03:37:21;95589.28;;;11.53;100.00
32197;BME280;18697;42.770;23.400;2023-05-15T03:39:47;95578.63;;;11.52;100.00
32197;BME280;18697;42.770;23.400;2023-05-15T03:42:12;95582.66;;;11.51;100.00
32197;BME280;18697;42.770;23.400;2023-05-15T03:44:37;95578.78;;;11.48;100.00
32197;BME280;18697;42.770;23.400;2023-05-15T03:47:03;95579.22;;;11.56;100.00
32197;BME280;18697;42.770;23.400;2023-05-15T03:49:28;95580.47;;;11.55;100.00
32197;BME280;18697;42.770;23.400;2023-05-15T03:51:55;95581.41;;;11.52;100.00
32197;BME280;18697;42.770;23.400;2023-05-15T03:54:21;95591.28;;;11.53;100.00
32197;BME280;18697;42.770;23.400;2023-05-15T03:56:46;95594.66;;;11.57;100.00
32197;BME280;18697;42.770;23.400;2023-05-15T03:59:12;95594.50;;;11.61;100.00
32197;BME280;18697;42.770;23.400;2023-05-15T04:01:37;95592.31;;;11.65;100.00
32197;BME280;18697;42.770;23.400;2023-05-15T04:04:03;95579.66;;;11.64;100.00
32197;BME280;18697;42.770;23.400;2023-05-15T04:06:28;95578.09;;;11.63;100.00
32197;BME280;18697;42.770;23.400;2023-05-15T04:08:53;95581.34;;;11.61;100.00
32197;BME280;18697;42.770;23.400;2023-05-15T04:11:19;95582.13;;;11.62;100.00
32197;BME280;18697;42.770;23.400;2023-05-15T04:13:45;95579.66;;;11.64;100.00
32197;BME280;18697;42.770;23.400;2023-05-15T04:16:11;95585.38;;;11.60;100.00
32197;BME280;18697;42.770;23.400;2023-05-15T04:18:36;95586.91;;;11.61;100.00
32197;BME280;18697;42.770;23.400;2023-05-15T04:21:01;95593.25;;;11.62;100.00
32197;BME280;18697;42.770;23.400;2023-05-15T04:23:27;95595.88;;;11.65;100.00
32197;BME280;18697;42.770;23.400;2023-05-15T04:25:53;95595.25;;;11.61;100.00
32197;BME280;18697;42.770;23.400;2023-05-15T04:28:18;95604.81;;;11.69;100.00
32197;BME280;18697;42.770;23.400;2023-05-15T04:30:46;95589.69;;;11.61;100.00
32197;BME280;18697;42.770;23.400;2023-05-15T04:33:11;95589.22;;;11.63;100.00
32197;BME280;18697;42.770;23.400;2023-05-15T04:35:36;95591.03;;;11.75;100.00
32197;BME280;18697;42.770;23.400;2023-05-15T04:38:02;95594.13;;;11.77;100.00
32197;BME280;18697;42.770;23.400;2023-05-15T04:40:28;95578.69;;;11.67;100.00
32197;BME280;18697;42.770;23.400;2023-05-15T04:42:54;95582.53;;;11.69;100.00
32197;BME280;18697;42.770;23.400;2023-05-15T04:45:19;95566.97;;;11.63;100.00
32197;BME280;18697;42.770;23.400;2023-05-15T04:47:45;95578.75;;;11.58;100.00
32197;BME280;18697;42.770;23.400;2023-05-15T04:50:10;95575.66;;;11.56;100.00
32197;BME280;18697;42.770;23.400;2023-05-15T04:52:36;95570.41;;;11.58;100.00
32197;BME280;18697;42.770;23.400;2023-05-15T04:55:02;95570.19;;;11.70;100.00
32197;BME280;18697;42.770;23.400;2023-05-15T04:57:27;95578.41;;;11.65;100.00
32197;BME280;18697;42.770;23.400;2023-05-15T04:59:53;95587.81;;;11.67;100.00
32197;BME280;18697;42.770;23.400;2023-05-15T05:02:21;95596.16;;;11.67;100.00
32197;BME280;18697;42.770;23.400;2023-05-15T05:04:47;95586.41;;;11.72;100.00
32197;BME280;18697;42.770;23.400;2023-05-15T05:07:13;95582.44;;;11.64;100.00
32197;BME280;18697;42.770;23.400;2023-05-15T05:09:39;95589.16;;;11.81;100.00
32197;BME280;18697;42.770;23.400;2023-05-15T05:12:06;95589.38;;;11.92;100.00
32197;BME280;18697;42.770;23.400;2023-05-15T05:14:32;95582.25;;;11.91;100.00
32197;BME280;18697;42.770;23.400;2023-05-15T05:16:57;95579.59;;;11.97;100.00
32197;BME280;18697;42.770;23.400;2023-05-15T05:19:22;95571.44;;;11.93;100.00
32197;BME280;18697;42.770;23.400;2023-05-15T05:21:48;95562.91;;;11.97;100.00
32197;BME280;18697;42.770;23.400;2023-05-15T05:24:13;95561.78;;;12.03;100.00
32197;BME280;18697;42.770;23.400;2023-05-15T05:26:41;95558.00;;;11.92;100.00
32197;BME280;18697;42.770;23.400;2023-05-15T05:29:07;95562.50;;;11.89;100.00
32197;BME280;18697;42.770;23.400;2023-05-15T05:31:32;95572.28;;;11.84;100.00
32197;BME280;18697;42.770;23.400;2023-05-15T05:33:57;95564.91;;;11.96;100.00
32197;BME280;18697;42.770;23.400;2023-05-15T05:36:23;95576.94;;;12.02;100.00
32197;BME280;18697;42.770;23.400;2023-05-15T05:38:48;95568.28;;;12.00;100.00
32197;BME280;18697;42.770;23.400;2023-05-15T05:41:14;95560.41;;;11.99;100.00
32197;BME280;18697;42.770;23.400;2023-05-15T05:43:39;95565.44;;;12.09;100.00
32197;BME280;18697;42.770;23.400;2023-05-15T05:46:04;95557.75;;;12.04;100.00
32197;BME280;18697;42.770;23.400;2023-05-15T05:48:29;95561.41;;;12.10;100.00
32197;BME280;18697;42.770;23.400;2023-05-15T05:50:57;95561.41;;;12.10;100.00
32197;BME280;18697;42.770;23.400;2023-05-15T05:53:23;95574.56;;;12.10;100.00
32197;BME280;18697;42.770;23.400;2023-05-15T05:55:48;95568.56;;;12.26;100.00
32197;BME280;18697;42.770;23.400;2023-05-15T05:58:14;95568.00;;;12.37;100.00
32197;BME280;18697;42.770;23.400;2023-05-15T06:00:41;95565.53;;;12.39;99.78
32197;BME280;18697;42.770;23.400;2023-05-15T06:03:07;95576.41;;;12.52;98.76
32197;BME280;18697;42.770;23.400;2023-05-15T06:05:33;95577.16;;;12.67;97.96
32197;BME280;18697;42.770;23.400;2023-05-15T06:07:59;95569.38;;;12.71;97.39
32197;BME280;18697;42.770;23.400;2023-05-15T06:10:26;95584.09;;;12.86;97.68
32197;BME280;18697;42.770;23.400;2023-05-15T06:12:51;95584.09;;;13.01;96.18
32197;BME280;18697;42.770;23.400;2023-05-15T06:15:17;95573.53;;;13.05;95.52
32197;BME280;18697;42.770;23.400;2023-05-15T06:17:42;95569.03;;;13.22;95.71
32197;BME280;18697;42.770;23.400;2023-05-15T06:20:08;95562.19;;;13.23;93.93
32197;BME280;18697;42.770;23.400;2023-05-15T06:22:37;95563.00;;;13.44;94.00
32197;BME280;18697;42.770;23.400;2023-05-15T06:25:03;95554.34;;;13.42;92.49
32197;BME280;18697;42.770;23.400;2023-05-15T06:27:29;95568.19;;;13.51;93.81
32197;BME280;18697;42.770;23.400;2023-05-15T06:29:54;95578.94;;;13.58;93.21
32197;BME280;18697;42.770;23.400;2023-05-15T06:32:20;95579.72;;;13.44;92.12
32197;BME280;18697;42.770;23.400;2023-05-15T06:34:45;95585.69;;;13.52;93.11
32197;BME280;18697;42.770;23.400;2023-05-15T06:37:11;95582.25;;;13.42;93.12
32197;BME280;18697;42.770;23.400;2023-05-15T06:39:36;95574.06;;;13.38;92.15
32197;BME280;18697;42.770;23.400;2023-05-15T06:42:02;95587.53;;;13.40;92.59
32197;BME280;18697;42.770;23.400;2023-05-15T06:44:29;95599.41;;;13.20;93.28
32197;BME280;18697;42.770;23.400;2023-05-15T06:46:55;95590.94;;;13.29;93.27
32197;BME280;18697;42.770;23.400;2023-05-15T06:49:20;95594.16;;;13.42;93.75
32197;BME280;18697;42.770;23.400;2023-05-15T06:51:46;95597.00;;;13.28;92.63
32197;BME280;18697;42.770;23.400;2023-05-15T06:54:13;95599.13;;;13.33;91.75
32197;BME280;18697;42.770;23.400;2023-05-15T06:56:38;95587.75;;;13.36;92.18
32197;BME280;18697;42.770;23.400;2023-05-15T06:59:03;95600.59;;;13.48;92.59
32197;BME280;18697;42.770;23.400;2023-05-15T07:01:30;95597.00;;;13.63;91.65
32197;BME280;18697;42.770;23.400;2023-05-15T07:03:55;95596.97;;;13.77;89.89
32197;BME280;18697;42.770;23.400;2023-05-15T07:06:20;95585.75;;;13.92;89.50
32197;BME280;18697;42.770;23.400;2023-05-15T07:08:46;95595.97;;;13.95;88.27
32197;BME280;18697;42.770;23.400;2023-05-15T07:11:11;95580.75;;;13.96;87.59
32197;BME280;18697;42.770;23.400;2023-05-15T07:13:36;95589.97;;;14.02;88.10
32197;BME280;18697;42.770;23.400;2023-05-15T07:16:02;95597.78;;;13.98;87.15
32197;BME280;18697;42.770;23.400;2023-05-15T07:18:28;95597.56;;;14.02;88.13
32197;BME280;18697;42.770;23.400;2023-05-15T07:20:54;95584.78;;;13.95;88.21
32197;BME280;18697;42.770;23.400;2023-05-15T07:23:19;95596.16;;;13.92;87.30
32197;BME280;18697;42.770;23.400;2023-05-15T07:25:44;95599.69;;;13.72;87.58
32197;BME280;18697;42.770;23.400;2023-05-15T07:28:10;95607.03;;;13.55;87.30
32197;BME280;18697;42.770;23.400;2023-05-15T07:30:35;95594.31;;;13.68;89.41
32197;BME280;18697;42.770;23.400;2023-05-15T07:33:01;95610.66;;;13.75;87.83
32197;BME280;18697;42.770;23.400;2023-05-15T07:35:26;95597.81;;;13.84;89.10
32197;BME280;18697;42.770;23.400;2023-05-15T07:37:51;95599.44;;;13.90;88.34
32197;BME280;18697;42.770;23.400;2023-05-15T07:40:17;95587.22;;;13.88;88.54
32197;BME280;18697;42.770;23.400;2023-05-15T07:42:43;95590.78;;;13.88;88.62
32197;BME280;18697;42.770;23.400;2023-05-15T07:45:09;95598.63;;;13.69;87.58
32197;BME280;18697;42.770;23.400;2023-05-15T07:47:34;95608.22;;;13.83;88.98
32197;BME280;18697;42.770;23.400;2023-05-15T07:50:00;95596.97;;;13.77;88.23
32197;BME280;18697;42.770;23.400;2023-05-15T07:52:25;95586.94;;;13.86;89.16
32197;BME280;18697;42.770;23.400;2023-05-15T07:54:51;95591.03;;;13.70;88.97
32197;BME280;18697;42.770;23.400;2023-05-15T07:57:16;95601.34;;;13.64;88.10
32197;BME280;18697;42.770;23.400;2023-05-15T07:59:42;95618.38;;;13.66;89.38
32197;BME280;18697;42.770;23.400;2023-05-15T08:02:07;95607.97;;;13.66;89.57
32197;BME280;18697;42.770;23.400;2023-05-15T08:04:33;95618.53;;;13.77;88.64
32197;BME280;18697;42.770;23.400;2023-05-15T08:06:58;95627.75;;;13.83;88.60
32197;BME280;18697;42.770;23.400;2023-05-15T08:09:23;95624.34;;;13.59;89.66
32197;BME280;18697;42.770;23.400;2023-05-15T08:11:48;95632.03;;;13.64;88.48
32197;BME280;18697;42.770;23.400;2023-05-15T08:14:14;95619.53;;;13.59;87.64
32197;BME280;18697;42.770;23.400;2023-05-15T08:16:39;95617.22;;;13.58;88.94
32197;BME280;18697;42.770;23.400;2023-05-15T08:19:04;95623.59;;;13.58;89.73
32197;BME280;18697;42.770;23.400;2023-05-15T08:21:32;95628.00;;;13.65;91.12
32197;BME280;18697;42.770;23.400;2023-05-15T08:23:58;95616.97;;;13.41;90.81
32197;BME280;18697;42.770;23.400;2023-05-15T08:26:24;95622.19;;;13.33;91.96
32197;BME280;18697;42.770;23.400;2023-05-15T08:28:49;95619.47;;;13.39;92.01
32197;BME280;18697;42.770;23.400;2023-05-15T08:31:15;95616.78;;;13.44;91.81
32197;BME280;18697;42.770;23.400;2023-05-15T08:33:40;95613.00;;;13.47;92.90
32197;BME280;18697;42.770;23.400;2023-05-15T08:36:06;95621.56;;;13.59;92.91
32197;BME280;18697;42.770;23.400;2023-05-15T08:38:32;95607.53;;;13.53;92.27
32197;BME280;18697;42.770;23.400;2023-05-15T08:41:03;95614.94;;;13.56;91.23
32197;BME280;18697;42.770;23.400;2023-05-15T08:43:33;95606.66;;;13.47;91.80
32197;BME280;18697;42.770;23.400;2023-05-15T08:46:00;95600.59;;;13.48;92.64
32197;BME280;18697;42.770;23.400;2023-05-15T08:48:28;95607.28;;;13.36;93.28
32197;BME280;18697;42.770;23.400;2023-05-15T08:50:56;95601.84;;;13.47;92.89
32197;BME280;18697;42.770;23.400;2023-05-15T08:53:22;95597.25;;;13.44;91.96
32197;BME280;18697;42.770;23.400;2023-05-15T08:55:48;95586.22;;;13.35;92.48
32197;BME280;18697;42.770;23.400;2023-05-15T08:58:14;95588.78;;;13.39;92.00
32197;BME280;18697;42.770;23.400;2023-05-15T09:00:41;95587.19;;;13.32;91.62
32197;BME280;18697;42.770;23.400;2023-05-15T09:03:12;95589.84;;;13.41;91.72
32197;BME280;18697;42.770;23.400;2023-05-15T09:05:38;95581.56;;;13.47;92.38
32197;BME280;18697;42.770;23.400;2023-05-15T09:08:05;95570.78;;;13.40;92.24
32197;BME280;18697;42.770;23.400;2023-05-15T09:10:33;95574.28;;;13.35;92.03
32197;BME280;18697;42.770;23.400;2023-05-15T09:12:59;95568.38;;;13.47;92.27
32197;BME280;18697;42.770;23.400;2023-05-15T09:15:26;95564.69;;;13.56;92.40
32197;BME280;18697;42.770;23.400;2023-05-15T09:17:52;95568.06;;;13.60;91.83
32197;BME280;18697;42.770;23.400;2023-05-15T09:20:26;95572.19;;;13.65;91.87
32197;BME280;18697;42.770;23.400;2023-05-15T09:22:52;95576.72;;;13.62;91.56
32197;BME280;18697;42.770;23.400;2023-05-15T09:28:03;95576.41;;;13.95;90.64
32197;BME280;18697;42.770;23.400;2023-05-15T09:30:28;95564.94;;;14.13;91.14
32197;BME280;18697;42.770;23.400;2023-05-15T09:32:59;95554.19;;;14.27;89.92
32197;BME280;18697;42.770;23.400;2023-05-15T09:35:38;95548.03;;;14.23;89.12
32197;BME280;18697;42.770;23.400;2023-05-15T09:38:10;95541.81;;;14.33;88.26
32197;BME280;18697;42.770;23.400;2023-05-15T09:40:37;95554.25;;;14.53;88.05
32197;BME280;18697;42.770;23.400;2023-05-15T09:43:03;95548.25;;;14.60;87.38
32197;BME280;18697;42.770;23.400;2023-05-15T09:45:28;95560.28;;;14.45;86.91
32197;BME280;18697;42.770;23.400;2023-05-15T09:47:55;95550.97;;;14.54;87.74
32197;BME280;18697;42.770;23.400;2023-05-15T09:50:22;95550.69;;;14.52;86.50
32197;BME280;18697;42.770;23.400;2023-05-15T09:52:49;95538.41;;;14.44;87.03
32197;BME280;18697;42.770;23.400;2023-05-15T09:55:15;95526.03;;;14.30;86.25
32197;BME280;18697;42.770;23.400;2023-05-15T09:57:59;95502.63;;;14.48;87.04
32197;BME280;18697;42.770;23.400;2023-05-15T10:00:28;95502.75;;;14.59;87.00
32197;BME280;18697;42.770;23.400;2023-05-15T10:02:57;95502.53;;;14.63;86.48
32197;BME280;18697;42.770;23.400;2023-05-15T10:05:25;95512.13;;;14.56;86.49
32197;BME280;18697;42.770;23.400;2023-05-15T10:07:53;95506.59;;;14.62;86.48
32197;BME280;18697;42.770;23.400;2023-05-15T10:10:20;95501.44;;;14.81;86.88
32197;BME280;18697;42.770;23.400;2023-05-15T10:12:47;95506.38;;;14.65;85.19
32197;BME280;18697;42.770;23.400;2023-05-15T10:15:13;95501.75;;;14.62;87.36
32197;BME280;18697;42.770;23.400;2023-05-15T10:17:39;95501.06;;;14.41;85.96
32197;BME280;18697;42.770;23.400;2023-05-15T10:20:07;95510.75;;;14.26;87.39
32197;BME280;18697;42.770;23.400;2023-05-15T10:22:36;95510.25;;;14.27;86.93
32197;BME280;18697;42.770;23.400;2023-05-15T10:25:08;95512.56;;;14.29;86.89
32197;BME280;18697;42.770;23.400;2023-05-15T10:27:37;95522.06;;;14.37;87.14
32197;BME280;18697;42.770;23.400;2023-05-15T10:30:03;95541.75;;;14.48;87.29
32197;BME280;18697;42.770;23.400;2023-05-15T10:32:29;95550.53;;;14.41;86.64
32197;BME280;18697;42.770;23.400;2023-05-15T10:34:55;95548.66;;;14.53;86.74
32197;BME280;18697;42.770;23.400;2023-05-15T10:37:21;95546.91;;;14.55;85.64
32197;BME280;18697;42.770;23.400;2023-05-15T10:39:48;95543.56;;;14.51;86.67
32197;BME280;18697;42.770;23.400;2023-05-15T10:42:15;95551.75;;;14.55;86.68
32197;BME280;18697;42.770;23.400;2023-05-15T10:44:40;95562.69;;;14.58;87.15
32197;BME280;18697;42.770;23.400;2023-05-15T10:47:06;95562.00;;;14.63;86.89
32197;BME280;18697;42.770;23.400;2023-05-15T10:49:32;95572.69;;;14.65;86.12
32197;BME280;18697;42.770;23.400;2023-05-15T10:52:01;95572.97;;;14.67;86.43
32197;BME280;18697;42.770;23.400;2023-05-15T10:54:27;95568.81;;;14.83;85.44
32197;BME280;18697;42.770;23.400;2023-05-15T10:56:55;95546.78;;;14.96;84.13
32197;BME280;18697;42.770;23.400;2023-05-15T10:59:30;95547.31;;;15.00;84.47
32197;BME280;18697;42.770;23.400;2023-05-15T11:01:55;95560.59;;;15.05;83.32
32197;BME280;18697;42.770;23.400;2023-05-15T11:04:22;95549.34;;;14.99;83.46
32197;BME280;18697;42.770;23.400;2023-05-15T11:06:48;95546.88;;;15.07;85.00
32197;BME280;18697;42.770;23.400;2023-05-15T11:11:56;95550.31;;;15.22;83.25
32197;BME280;18697;42.770;23.400;2023-05-15T11:14:22;95540.84;;;15.14;82.71
32197;BME280;18697;42.770;23.400;2023-05-15T11:24:50;95514.94;;;15.19;85.02
32197;BME280;18697;42.770;23.400;2023-05-15T11:30:14;95518.91;;;15.07;84.61
32197;BME280;18697;42.770;23.400;2023-05-15T11:32:58;95512.72;;;14.97;84.90
32197;BME280;18697;42.770;23.400;2023-05-15T11:40:52;95541.16;;;15.22;84.47
32197;BME280;18697;42.770;23.400;2023-05-15T11:43:20;95546.94;;;15.12;83.43
32197;BME280;18697;42.770;23.400;2023-05-15T11:45:54;95525.06;;;15.11;84.04
32197;BME280;18697;42.770;23.400;2023-05-15T11:48:21;95507.22;;;15.08;84.64
32197;BME280;18697;42.770;23.400;2023-05-15T11:50:47;95489.31;;;15.26;84.39
32197;BME280;18697;42.770;23.400;2023-05-15T11:53:13;95480.91;;;15.26;84.14
32197;BME280;18697;42.770;23.400;2023-05-15T11:55:41;95472.78;;;15.28;84.12
32197;BME280;18697;42.770;23.400;2023-05-15T11:58:15;95469.03;;;15.37;85.03
32197;BME280;18697;42.770;23.400;2023-05-15T12:00:51;95462.97;;;15.44;84.67
32197;BME280;18697;42.770;23.400;2023-05-15T12:05:43;95482.91;;;15.57;84.09
32197;BME280;18697;42.770;23.400;2023-05-15T12:08:11;95501.94;;;15.53;83.16
32197;BME280;18697;42.770;23.400;2023-05-15T12:10:45;95491.84;;;15.67;83.10
32197;BME280;18697;42.770;23.400;2023-05-15T12:13:12;95492.97;;;15.86;83.81
32197;BME280;18697;42.770;23.400;2023-05-15T12:15:42;95471.84;;;15.85;81.08
32197;BME280;18697;42.770;23.400;2023-05-15T12:18:08;95473.88;;;15.85;80.24
32197;BME280;18697;42.770;23.400;2023-05-15T12:20:35;95479.72;;;15.81;81.32
32197;BME280;18697;42.770;23.400;2023-05-15T12:23:02;95482.50;;;15.81;81.00
32197;BME280;18697;42.770;23.400;2023-05-15T12:25:28;95461.34;;;15.74;81.62
32197;BME280;18697;42.770;23.400;2023-05-15T12:27:54;95462.16;;;15.86;81.04
32197;BME280;18697;42.770;23.400;2023-05-15T12:30:20;95470.81;;;15.88;80.66
32197;BME280;18697;42.770;23.400;2023-05-15T12:32:45;95454.28;;;15.90;80.03
32197;BME280;18697;42.770;23.400;2023-05-15T12:35:11;95431.38;;;15.92;80.41
32197;BME280;18697;42.770;23.400;2023-05-15T12:37:37;95425.03;;;15.97;80.29
32197;BME280;18697;42.770;23.400;2023-05-15T12:40:05;95406.97;;;15.98;81.36
32197;BME280;18697;42.770;23.400;2023-05-15T12:42:41;95406.44;;;15.99;80.78
32197;BME280;18697;42.770;23.400;2023-05-15T12:45:14;95413.09;;;16.07;81.60
32197;BME280;18697;42.770;23.400;2023-05-15T12:47:44;95394.00;;;16.12;81.50
32197;BME280;18697;42.770;23.400;2023-05-15T12:50:14;95391.72;;;16.16;80.61
32197;BME280;18697;42.770;23.400;2023-05-15T12:55:20;95385.63;;;16.23;82.19
32197;BME280;18697;42.770;23.400;2023-05-15T12:57:46;95380.53;;;16.21;80.32
32197;BME280;18697;42.770;23.400;2023-05-15T13:00:12;95376.47;;;16.33;81.61
32197;BME280;18697;42.770;23.400;2023-05-15T13:02:42;95380.00;;;16.45;79.27
32197;BME280;18697;42.770;23.400;2023-05-15T13:05:08;95380.31;;;16.69;78.70
32197;BME280;18697;42.770;23.400;2023-05-15T13:07:33;95394.03;;;16.62;79.40
32197;BME280;18697;42.770;23.400;2023-05-15T13:10:05;95407.84;;;16.71;78.99
32197;BME280;18697;42.770;23.400;2023-05-15T13:12:44;95405.28;;;16.84;79.73
32197;BME280;18697;42.770;23.400;2023-05-15T13:18:06;95404.50;;;17.00;80.60
32197;BME280;18697;42.770;23.400;2023-05-15T13:20:40;95405.53;;;16.92;78.89
32197;BME280;18697;42.770;23.400;2023-05-15T13:23:07;95407.31;;;16.67;79.42